Time;durP1;ratioP1;P1;durP2;ratioP2;P2;SDS_P1;SDS_P2;PMS_P1;PMS_P2;Temp;Humidity;BMP_temperature;BMP_pressure;BME280_temperature;BME280_humidity;BME280_pressure;Samples;Min_cycle;Max_cycle;Signal;HPM_P1;HPM_P2
2022/12/21 00:00:29;;;;;;;21.10;19.08;;;;;;;7.92;100.00;101119.28;5086248;29;20519;-65
2022/12/21 00:02:59;;;;;;;22.60;20.88;;;;;;;7.90;100.00;101113.31;5086127;29;20020;-65
2022/12/21 00:05:30;;;;;;;28.70;22.00;;;;;;;7.87;100.00;101110.28;5086236;29;20024;-65
2022/12/21 00:08:00;;;;;;;24.23;21.88;;;;;;;7.82;100.00;101102.91;5086553;29;20147;-65
2022/12/21 00:10:30;;;;;;;24.63;22.50;;;;;;;7.85;100.00;101107.81;5086241;29;20504;-65
2022/12/21 00:13:01;;;;;;;23.83;21.52;;;;;;;7.82;100.00;101110.97;5085662;29;20053;-65
2022/12/21 00:15:31;;;;;;;24.15;19.67;;;;;;;7.60;100.00;101094.56;5082201;29;20040;-65
2022/12/21 00:18:01;;;;;;;22.42;20.52;;;;;;;6.54;100.00;100928.84;5081993;29;20532;-65
2022/12/21 00:20:32;;;;;;;22.80;20.38;;;;;;;7.69;100.00;101121.94;5080298;29;20025;-65
2022/12/21 00:23:02;;;;;;;24.85;22.73;;;;;;;7.69;100.00;101120.09;5072374;29;20111;-65
2022/12/21 00:25:34;;;;;;;22.60;20.77;;;;;;;7.73;100.00;101123.94;5072337;29;20035;-64
2022/12/21 00:28:04;;;;;;;23.58;21.50;;;;;;;7.71;100.00;101122.53;5065290;29;20028;-64
2022/12/21 00:30:35;;;;;;;31.95;28.48;;;;;;;7.70;100.00;101112.84;5084642;29;20028;-64
2022/12/21 00:33:05;;;;;;;26.60;23.98;;;;;;;7.71;100.00;101119.84;5084091;29;20075;-63
2022/12/21 00:35:35;;;;;;;31.27;28.58;;;;;;;7.71;100.00;101127.91;5072709;29;20040;-65
2022/12/21 00:38:06;;;;;;;35.38;27.17;;;;;;;7.66;100.00;101130.47;5065224;29;20027;-63
2022/12/21 00:40:36;;;;;;;26.33;24.08;;;;;;;7.68;100.00;101129.19;5080059;29;20056;-63
2022/12/21 00:43:06;;;;;;;26.48;23.90;;;;;;;7.62;100.00;101115.84;5064680;29;20108;-64
2022/12/21 00:45:37;;;;;;;27.00;24.48;;;;;;;7.51;100.00;101105.91;5065042;29;20405;-63
2022/12/21 00:48:08;;;;;;;27.17;24.77;;;;;;;7.68;100.00;101129.19;5080982;29;20028;-62
2022/12/21 00:50:38;;;;;;;24.67;22.45;;;;;;;7.67;100.00;101132.09;5084595;29;20020;-64
2022/12/21 00:53:08;;;;;;;23.27;21.50;;;;;;;7.64;100.00;101119.94;5084093;29;20108;-64
2022/12/21 00:55:39;;;;;;;28.02;25.48;;;;;;;7.65;100.00;101131.53;5072063;29;20084;-64
2022/12/21 00:58:09;;;;;;;25.15;22.55;;;;;;;7.63;100.00;101128.25;5065447;29;20244;-64
2022/12/21 01:00:40;;;;;;;25.08;22.88;;;;;;;7.59;100.00;101125.19;5084526;29;20500;-64
2022/12/21 01:03:10;;;;;;;24.90;22.73;;;;;;;7.62;100.00;101129.28;5083605;29;20426;-66
2022/12/21 01:05:40;;;;;;;22.75;20.42;;;;;;;7.60;100.00;101121.44;5071536;29;20040;-64
2022/12/21 01:08:11;;;;;;;24.80;22.83;;;;;;;7.65;100.00;101128.81;5081517;29;20103;-64
2022/12/21 01:10:42;;;;;;;26.45;19.95;;;;;;;7.61;100.00;101123.09;5062551;29;20030;-65
2022/12/21 01:13:14;;;;;;;24.88;22.67;;;;;;;7.62;100.00;101127.41;5073653;29;20084;-67
2022/12/21 01:15:46;;;;;;;23.08;20.58;;;;;;;7.57;100.00;101123.78;5071343;29;20043;-64
2022/12/21 01:18:16;;;;;;;35.88;19.35;;;;;;;7.53;100.00;101120.72;5066581;29;20111;-64
2022/12/21 01:20:49;;;;;;;21.15;19.45;;;;;;;7.43;100.00;101121.28;5084561;29;20115;-64
2022/12/21 01:23:21;;;;;;;21.80;19.75;;;;;;;7.44;100.00;101116.75;5066915;29;20046;-64
2022/12/21 01:25:51;;;;;;;22.13;19.95;;;;;;;7.53;100.00;101136.03;5070335;29;20457;-65
2022/12/21 01:28:22;;;;;;;21.60;19.55;;;;;;;7.52;100.00;101139.75;5065706;29;20032;-64
2022/12/21 01:30:52;;;;;;;20.13;18.52;;;;;;;7.13;100.00;101085.56;5084572;29;20104;-65
2022/12/21 01:33:23;;;;;;;22.42;20.33;;;;;;;7.44;100.00;101128.31;5074802;29;20028;-64
2022/12/21 01:35:53;;;;;;;24.20;22.05;;;;;;;7.50;100.00;101123.91;5083312;29;20028;-66
2022/12/21 01:38:23;;;;;;;21.20;19.52;;;;;;;7.48;100.00;101128.69;5072639;29;20024;-64
2022/12/21 01:40:54;;;;;;;25.00;22.75;;;;;;;7.52;100.00;101120.94;5081510;29;20021;-64
2022/12/21 01:43:41;;;;;;;23.48;21.27;;;;;;;7.52;100.00;101139.75;5079155;29;20055;-64
2022/12/21 01:46:26;;;;;;;24.58;22.55;;;;;;;7.52;100.00;101145.13;5088128;29;20024;-65
2022/12/21 01:49:24;;;;;;;23.20;21.35;;;;;;;7.47;100.00;101137.78;5087744;29;20028;-65
2022/12/21 01:52:02;;;;;;;25.50;23.40;;;;;;;7.55;100.00;101144.69;5067848;29;20041;-65
2022/12/21 01:54:48;;;;;;;26.48;23.85;;;;;;;7.54;100.00;101149.25;5083879;29;20100;-67
2022/12/21 01:57:18;;;;;;;24.15;22.17;;;;;;;7.54;100.00;101137.66;5067724;29;20028;-63
2022/12/21 01:59:56;;;;;;;23.73;21.80;;;;;;;7.51;100.00;101147.00;5064335;29;20473;-63
2022/12/21 02:02:35;;;;;;;20.75;18.95;;;;;;;7.44;100.00;101154.34;5050674;29;20012;-63
2022/12/21 02:05:36;;;;;;;23.48;21.48;;;;;;;7.38;100.00;101153.41;5067565;29;20089;-63
2022/12/21 02:08:06;;;;;;;17.40;16.00;;;;;;;7.36;100.00;101147.44;5082314;29;20047;-64
2022/12/21 02:10:37;;;;;;;22.13;19.98;;;;;;;7.34;100.00;101154.91;5072226;29;20020;-64
2022/12/21 02:13:13;;;;;;;20.20;17.02;;;;;;;7.33;100.00;101147.06;5086080;29;20050;-64
2022/12/21 02:16:02;;;;;;;20.05;18.25;;;;;;;7.33;100.00;101150.56;5086455;29;20040;-64
2022/12/21 02:19:08;;;;;;;190.15;42.58;;;;;;;7.27;100.00;101156.03;5082974;29;20024;-65
2022/12/21 02:21:53;;;;;;;23.98;21.95;;;;;;;7.22;100.00;101137.09;5044908;29;20044;-65
2022/12/21 02:24:55;;;;;;;22.27;20.45;;;;;;;7.28;100.00;101150.44;5069343;29;20020;-65
2022/12/21 02:27:53;;;;;;;23.20;19.58;;;;;;;7.26;100.00;101155.19;5051191;29;20068;-64
2022/12/21 02:30:48;;;;;;;18.23;16.38;;;;;;;7.17;100.00;101136.97;5067480;29;20111;-63
2022/12/21 02:33:31;;;;;;;17.70;16.10;;;;;;;7.18;100.00;101139.44;5066747;29;20100;-63
2022/12/21 02:36:13;;;;;;;16.27;14.55;;;;;;;7.18;100.00;101150.16;5083037;29;20530;-63
2022/12/21 02:38:59;;;;;;;16.40;14.73;;;;;;;7.15;100.00;101149.78;5081200;29;20039;-63
2022/12/21 02:41:38;;;;;;;17.08;14.63;;;;;;;7.10;100.00;101151.28;5078408;29;20043;-63
2022/12/21 02:44:30;;;;;;;8.15;7.35;;;;;;;6.98;100.00;101145.03;5069537;29;20073;-64
2022/12/21 02:47:07;;;;;;;13.02;11.75;;;;;;;7.03;100.00;101157.78;5078360;29;20027;-63
2022/12/21 02:49:54;;;;;;;21.15;13.35;;;;;;;7.02;100.00;101154.28;5066741;29;20027;-63
2022/12/21 02:52:41;;;;;;;12.70;11.50;;;;;;;7.00;100.00;101150.16;5064544;29;20024;-64
2022/12/21 02:55:13;;;;;;;12.23;11.40;;;;;;;6.96;100.00;101146.28;5066776;29;20512;-65
2022/12/21 02:57:44;;;;;;;14.07;11.40;;;;;;;6.57;100.00;101102.78;5066290;29;20032;-65
2022/12/21 03:00:19;;;;;;;12.95;11.65;;;;;;;6.81;100.00;101116.34;5073491;23;20071;-67
2022/12/21 03:06:26;;;;;;;11.45;10.48;;;;;;;6.34;100.00;101024.84;5061463;29;20160;-68
2022/12/21 03:09:21;;;;;;;12.68;10.20;;;;;;;6.89;100.00;101113.34;5053371;29;20024;-67
2022/12/21 03:11:58;;;;;;;12.75;10.88;;;;;;;6.71;100.00;101109.63;5065351;29;20032;-67
2022/12/21 03:14:50;;;;;;;13.30;10.30;;;;;;;6.81;100.00;101143.19;5065322;29;20028;-67
2022/12/21 03:17:46;;;;;;;10.88;8.82;;;;;;;6.77;100.00;101132.06;5065444;29;20033;-68
2022/12/21 03:20:17;;;;;;;13.25;10.88;;;;;;;6.74;100.00;101130.66;5050092;29;20284;-68
2022/12/21 03:23:05;;;;;;;10.32;9.30;;;;;;;6.76;100.00;101120.50;5059285;29;20487;-67
2022/12/21 03:25:42;;;;;;;10.27;9.35;;;;;;;6.75;100.00;101107.31;5058086;29;20541;-67
2022/12/21 03:28:18;;;;;;;16.38;11.88;;;;;;;6.75;100.00;101123.41;5064839;29;20032;-67
2022/12/21 03:30:53;;;;;;;11.75;10.60;;;;;;;6.69;100.00;101127.81;5048290;29;20068;-66
2022/12/21 03:33:29;;;;;;;11.23;10.25;;;;;;;6.64;100.00;101122.28;5064209;29;20025;-67
2022/12/21 03:36:09;;;;;;;12.02;10.80;;;;;;;6.68;100.00;101098.50;5050241;29;20486;-68
2022/12/21 03:38:39;;;;;;;;;;;;;;;6.73;100.00;101110.22;5060709;29;20025;-66
2022/12/21 03:41:16;;;;;;;11.50;10.40;;;;;;;6.76;100.00;101114.31;5054949;29;20395;-69
2022/12/21 03:43:49;;;;;;;16.00;14.55;;;;;;;6.72;100.00;101122.00;5051797;29;20281;-67
2022/12/21 03:46:25;;;;;;;13.18;11.95;;;;;;;6.72;100.00;101113.94;5056238;29;20020;-67
2022/12/21 03:49:05;;;;;;;15.52;14.27;;;;;;;6.70;100.00;101115.22;5058628;29;20084;-67
2022/12/21 03:51:43;;;;;;;10.80;9.93;;;;;;;6.26;100.00;101066.19;5058027;29;20028;-67
2022/12/21 03:54:55;;;;;;;13.75;12.68;;;;;;;6.37;100.00;101081.53;5049400;29;20036;-67
2022/12/21 03:57:26;;;;;;;15.93;13.52;;;;;;;6.49;100.00;101108.44;5053521;29;20048;-67
2022/12/21 04:00:00;;;;;;;14.85;13.30;;;;;;;6.59;100.00;101108.75;5060763;29;20035;-67
2022/12/21 04:02:46;;;;;;;12.10;10.45;;;;;;;6.67;100.00;101113.78;5060569;29;20049;-67
2022/12/21 04:05:20;;;;;;;13.95;12.68;;;;;;;6.69;100.00;101114.41;5055165;29;20033;-67
2022/12/21 04:07:52;;;;;;;14.80;13.27;;;;;;;6.59;100.00;101106.06;5051012;29;20029;-69
2022/12/21 04:10:25;;;;;;;14.63;13.10;;;;;;;6.63;100.00;101107.25;5063024;29;20040;-67
2022/12/21 04:12:55;;;;;;;15.13;13.70;;;;;;;6.61;100.00;101101.31;5057612;29;20044;-67
2022/12/21 04:16:03;;;;;;;14.52;13.38;;;;;;;6.61;100.00;101106.66;5056194;29;20036;-67
2022/12/21 04:19:57;;;;;;;14.45;13.02;;;;;;;6.54;100.00;101105.91;5050646;29;20194;-67
2022/12/21 04:21:07;;;;;;;18.38;12.75;;;;;;;6.54;100.00;101108.59;5045725;29;20045;-67
2022/12/21 04:29:17;;;;;;;20.83;12.85;;;;;;;6.57;100.00;101110.00;5045689;29;20092;-66
2022/12/21 04:31:47;;;;;;;16.52;15.05;;;;;;;6.56;100.00;101105.69;5045093;29;20073;-66
2022/12/21 04:34:17;;;;;;;11.48;10.68;;;;;;;6.43;100.00;101075.28;5045366;29;20025;-67
2022/12/21 04:39:37;;;;;;;14.90;13.45;;;;;;;6.56;100.00;101085.03;5045057;29;20043;-68
2022/12/21 04:42:07;;;;;;;14.77;13.27;;;;;;;6.50;100.00;101077.06;5044317;29;20375;-67
2022/12/21 04:44:37;;;;;;;16.23;12.93;;;;;;;6.52;100.00;101091.91;5044346;29;20025;-66
2022/12/21 04:47:08;;;;;;;14.38;13.02;;;;;;;6.47;100.00;101105.16;5044745;29;20115;-67
2022/12/21 04:49:38;;;;;;;15.63;13.07;;;;;;;6.45;100.00;101091.16;5044836;29;20043;-66
2022/12/21 04:52:09;;;;;;;14.23;13.02;;;;;;;6.43;100.00;101083.31;5044480;29;20033;-67
2022/12/21 04:54:39;;;;;;;13.93;12.80;;;;;;;6.41;100.00;101084.59;5044746;29;20108;-66
2022/12/21 04:57:10;;;;;;;13.77;12.57;;;;;;;6.47;100.00;101088.25;5044763;29;20398;-67
2022/12/21 04:59:40;;;;;;;12.70;11.38;;;;;;;6.49;100.00;101086.97;5043215;29;20059;-67
2022/12/21 05:02:11;;;;;;;14.27;12.85;;;;;;;6.40;100.00;101088.31;5043940;29;20512;-67
2022/12/21 05:04:42;;;;;;;18.85;12.98;;;;;;;6.44;100.00;101094.88;5043319;29;20033;-66
2022/12/21 05:07:12;;;;;;;16.92;12.70;;;;;;;6.43;100.00;101093.22;5044356;29;20434;-67
2022/12/21 05:09:42;;;;;;;16.23;13.52;;;;;;;6.41;100.00;101101.50;5044606;29;20056;-67
2022/12/21 05:12:13;;;;;;;11.13;10.13;;;;;;;6.43;100.00;101087.88;5043999;29;20032;-67
2022/12/21 05:14:43;;;;;;;14.88;12.15;;;;;;;6.38;100.00;101080.47;5044141;29;20476;-67
2022/12/21 05:17:13;;;;;;;13.30;12.07;;;;;;;6.41;100.00;101082.72;5044689;29;20378;-66
2022/12/21 05:19:46;;;;;;;11.40;10.35;;;;;;;6.43;100.00;101087.88;5044261;29;20021;-67
2022/12/21 05:22:17;;;;;;;19.65;14.32;;;;;;;6.43;100.00;101093.22;5044217;29;20036;-66
2022/12/21 05:24:48;;;;;;;12.95;11.80;;;;;;;6.41;100.00;101095.31;5049106;29;20028;-67
2022/12/21 05:27:18;;;;;;;13.88;12.45;;;;;;;6.42;100.00;101083.53;5082853;29;20039;-67
2022/12/21 05:29:49;;;;;;;14.30;12.32;;;;;;;6.38;100.00;101090.38;5082921;29;20415;-66
2022/12/21 05:32:19;;;;;;;22.60;12.23;;;;;;;6.35;100.00;101093.53;5082557;29;20099;-69
2022/12/21 05:34:49;;;;;;;12.18;11.07;;;;;;;6.26;100.00;101097.53;5082970;29;20052;-68
2022/12/21 05:37:20;;;;;;;11.90;10.80;;;;;;;6.21;100.00;101105.44;5082985;29;20032;-66
2022/12/21 05:39:50;;;;;;;13.55;12.25;;;;;;;6.07;100.00;101086.78;5074298;29;20171;-67
2022/12/21 05:42:21;;;;;;;13.32;12.20;;;;;;;6.02;100.00;101072.41;5069517;29;20029;-67
2022/12/21 05:44:51;;;;;;;14.70;12.10;;;;;;;6.20;100.00;101109.97;5082392;29;20489;-67
2022/12/21 05:47:21;;;;;;;12.95;11.88;;;;;;;6.20;100.00;101101.09;5082565;29;20111;-65
2022/12/21 05:49:52;;;;;;;11.98;10.65;;;;;;;6.19;100.00;101089.56;5082190;29;20218;-66
2022/12/21 05:52:22;;;;;;;14.45;13.13;;;;;;;6.21;100.00;101089.34;5081725;29;20032;-66
2022/12/21 05:54:53;;;;;;;11.15;9.43;;;;;;;6.21;100.00;101092.03;5082492;29;20056;-67
2022/12/21 05:57:23;;;;;;;12.98;11.70;;;;;;;6.18;100.00;101101.31;5082497;29;20107;-66
2022/12/21 05:59:53;;;;;;;15.93;11.88;;;;;;;6.16;100.00;101094.53;5082320;29;20043;-67
2022/12/21 06:02:24;;;;;;;12.23;11.10;;;;;;;6.08;100.00;101071.50;5081615;29;20020;-67
2022/12/21 06:04:54;;;;;;;16.27;14.50;;;;;;;6.06;100.00;101068.25;5083064;29;20119;-67
2022/12/21 06:07:24;;;;;;;14.82;13.45;;;;;;;6.29;100.00;101081.84;5083443;29;20059;-67
2022/12/21 06:09:55;;;;;;;16.23;14.73;;;;;;;6.29;100.00;101091.75;5083029;29;20118;-67
2022/12/21 06:12:28;;;;;;;18.95;14.13;;;;;;;6.31;100.00;101082.44;5082399;29;20481;-67
2022/12/21 06:14:59;;;;;;;16.77;14.90;;;;;;;6.31;100.00;101081.63;5066233;29;20047;-68
2022/12/21 06:17:30;;;;;;;16.67;14.65;;;;;;;6.30;100.00;101077.28;5083090;29;20539;-67
2022/12/21 06:20:00;;;;;;;19.02;16.73;;;;;;;6.32;100.00;101088.63;5085253;29;20024;-67
2022/12/21 06:22:33;;;;;;;18.27;16.38;;;;;;;6.33;100.00;101099.13;5086168;29;20595;-68
2022/12/21 06:25:04;;;;;;;18.38;16.58;;;;;;;6.32;100.00;101110.06;5086509;29;20032;-67
2022/12/21 06:27:34;;;;;;;20.15;17.98;;;;;;;6.31;100.00;101100.38;5086429;29;20032;-67
2022/12/21 06:30:05;;;;;;;19.80;18.13;;;;;;;6.30;100.00;101101.44;5086555;29;20038;-68
2022/12/21 06:32:36;;;;;;;23.60;18.50;;;;;;;6.34;100.00;101106.13;5085771;29;20027;-67
2022/12/21 06:35:07;;;;;;;20.10;17.45;;;;;;;6.36;100.00;101103.19;5069262;29;20051;-67
2022/12/21 06:37:37;;;;;;;24.30;21.38;;;;;;;6.36;100.00;101104.03;5086544;29;20039;-67
2022/12/21 06:40:08;;;;;;;20.77;18.50;;;;;;;6.36;100.00;101103.19;5086106;29;20047;-67
2022/12/21 06:42:38;;;;;;;20.50;18.58;;;;;;;6.25;100.00;101080.63;5084897;29;20032;-67
2022/12/21 06:45:09;;;;;;;23.48;19.77;;;;;;;6.32;100.00;101091.31;5086137;29;20023;-67
2022/12/21 06:47:39;;;;;;;19.50;17.63;;;;;;;6.18;100.00;101071.00;5069418;29;20028;-66
2022/12/21 06:50:10;;;;;;;19.25;17.13;;;;;;;6.25;100.00;101090.53;5080500;29;20032;-67
2022/12/21 06:52:40;;;;;;;25.05;18.80;;;;;;;6.26;100.00;101100.22;5065478;29;20460;-67
2022/12/21 06:55:11;;;;;;;26.83;21.77;;;;;;;6.27;100.00;101109.91;5075181;29;20371;-68
2022/12/21 06:57:42;;;;;;;20.08;18.20;;;;;;;6.26;100.00;101105.59;5086564;29;20032;-68
2022/12/21 07:00:14;;;;;;;27.55;22.10;;;;;;;6.24;100.00;101094.25;5085687;29;20465;-67
2022/12/21 07:02:44;;;;;;;28.73;19.67;;;;;;;6.17;100.00;101102.38;5085977;29;20051;-67
2022/12/21 07:05:15;;;;;;;22.85;18.13;;;;;;;6.24;100.00;101099.63;5085721;29;20032;-67
2022/12/21 07:07:45;;;;;;;23.13;20.70;;;;;;;6.23;100.00;101114.06;5086072;29;20024;-68
2022/12/21 07:10:15;;;;;;;24.25;21.85;;;;;;;6.19;100.00;101127.09;5085846;29;20472;-68
2022/12/21 07:12:46;;;;;;;23.42;19.10;;;;;;;6.15;100.00;101128.56;5085011;29;20224;-67
2022/12/21 07:15:16;;;;;;;20.95;18.17;;;;;;;6.01;100.00;101122.53;5085727;29;20021;-67
2022/12/21 07:17:47;;;;;;;21.48;19.15;;;;;;;6.10;100.00;101139.97;5085616;29;20448;-68
2022/12/21 07:20:17;;;;;;;19.98;18.00;;;;;;;6.20;100.00;101157.41;5069016;29;20031;-67
2022/12/21 07:22:47;;;;;;;23.85;21.10;;;;;;;6.10;100.00;101147.19;5085520;29;20028;-67
2022/12/21 07:25:18;;;;;;;26.45;19.90;;;;;;;6.11;100.00;101146.13;5085360;29;20052;-67
2022/12/21 07:27:48;;;;;;;25.27;18.48;;;;;;;6.19;100.00;101159.28;5085482;29;20425;-67
2022/12/21 07:30:19;;;;;;;24.08;18.13;;;;;;;6.31;100.00;101165.59;5084725;29;20056;-67
2022/12/21 07:32:52;;;;;;;21.60;19.50;;;;;;;6.36;100.00;101167.56;5067624;29;20477;-67
2022/12/21 07:35:23;;;;;;;34.47;21.40;;;;;;;6.35;100.00;101165.97;5068401;29;20481;-68
2022/12/21 07:37:54;;;;;;;24.98;19.02;;;;;;;6.36;100.00;101172.94;5085609;29;20028;-67
2022/12/21 07:40:24;;;;;;;23.98;20.70;;;;;;;6.19;100.00;101145.06;5084981;29;20035;-66
2022/12/21 07:42:54;;;;;;;21.15;18.80;;;;;;;6.35;100.00;101168.66;5084952;29;20028;-67
2022/12/21 07:45:26;;;;;;;32.05;20.25;;;;;;;6.36;100.00;101189.03;5085532;29;20021;-68
2022/12/21 07:47:56;;;;;;;26.02;20.27;;;;;;;6.37;100.00;101180.75;5085375;29;20043;-67
2022/12/21 07:50:27;;;;;;;27.33;19.73;;;;;;;6.29;100.00;101170.34;5085275;29;20404;-69
2022/12/21 07:52:58;;;;;;;28.67;20.30;;;;;;;6.40;100.00;101174.16;5084518;29;20028;-67
2022/12/21 07:55:29;;;;;;;24.95;18.90;;;;;;;6.21;100.00;101146.47;5080945;29;20104;-67
2022/12/21 07:58:00;;;;;;;22.00;20.00;;;;;;;6.37;100.00;101170.03;5065504;29;20478;-67
2022/12/21 08:00:31;;;;;;;27.67;20.20;;;;;;;6.40;100.00;101179.50;5065405;29;20067;-67
2022/12/21 08:03:01;;;;;;;24.10;19.38;;;;;;;6.37;100.00;101182.63;5048250;29;20024;-67
2022/12/21 08:05:32;;;;;;;22.30;19.50;;;;;;;6.33;100.00;101178.78;5064908;29;20028;-67
2022/12/21 08:08:03;;;;;;;24.58;18.30;;;;;;;6.38;100.00;101168.19;5065432;29;20020;-66
2022/12/21 08:10:33;;;;;;;20.67;18.08;;;;;;;6.23;100.00;101157.81;5065259;29;20661;-67
2022/12/21 08:13:03;;;;;;;25.67;20.17;;;;;;;6.42;100.00;101178.25;5064823;29;20035;-67
2022/12/21 08:15:34;;;;;;;22.75;20.15;;;;;;;6.45;100.00;101174.31;5064912;29;20027;-67
2022/12/21 08:18:05;;;;;;;19.83;16.15;;;;;;;6.47;100.00;101174.91;5065120;29;20095;-67
2022/12/21 08:20:35;;;;;;;22.75;17.80;;;;;;;6.46;100.00;101178.63;5065164;29;20032;-67
2022/12/21 08:23:06;;;;;;;28.33;18.73;;;;;;;6.44;100.00;101175.34;5064880;29;20052;-68
2022/12/21 08:25:36;;;;;;;26.13;16.92;;;;;;;6.49;100.00;101180.06;5064988;29;20028;-67
2022/12/21 08:28:06;;;;;;;23.80;19.50;;;;;;;6.45;100.00;101179.66;5065247;29;20099;-67
2022/12/21 08:30:37;;;;;;;20.80;18.85;;;;;;;6.41;100.00;101186.50;5065141;29;20028;-67
2022/12/21 08:33:07;;;;;;;29.08;17.35;;;;;;;6.39;100.00;101180.53;5064661;29;20025;-67
2022/12/21 08:35:38;;;;;;;25.23;18.85;;;;;;;6.35;100.00;101188.22;5064946;29;20066;-67
2022/12/21 08:38:08;;;;;;;22.23;19.85;;;;;;;6.21;100.00;101183.19;5065158;29;20308;-67
2022/12/21 08:40:38;;;;;;;25.60;18.52;;;;;;;6.22;100.00;101182.16;5064783;29;20032;-67
2022/12/21 08:43:09;;;;;;;17.55;15.85;;;;;;;6.14;100.00;101180.56;5063867;29;20024;-67
2022/12/21 08:45:39;;;;;;;18.52;16.83;;;;;;;6.13;100.00;101183.47;5065048;29;20084;-68
2022/12/21 08:48:11;;;;;;;19.63;17.52;;;;;;;6.10;100.00;101196.25;5065502;29;20030;-67
2022/12/21 08:50:41;;;;;;;25.52;18.17;;;;;;;6.12;100.00;101193.38;5065384;29;20064;-67
2022/12/21 08:53:11;;;;;;;21.42;19.33;;;;;;;6.03;100.00;101175.94;5064513;29;20075;-69
2022/12/21 08:55:42;;;;;;;24.08;19.70;;;;;;;6.28;100.00;101194.69;5065878;29;20040;-67
2022/12/21 08:58:12;;;;;;;41.80;20.02;;;;;;;6.36;100.00;101195.22;5070161;29;20034;-67
2022/12/21 09:00:43;;;;;;;27.98;20.85;;;;;;;6.45;100.00;101190.41;5061821;23;20044;-66
2022/12/21 09:03:13;;;;;;;20.63;18.58;;;;;;;6.51;100.00;101197.56;5064456;29;20076;-65
2022/12/21 09:05:45;;;;;;;31.70;19.75;;;;;;;6.54;100.00;101202.50;5047320;29;20067;-64
2022/12/21 09:08:16;;;;;;;25.05;17.85;;;;;;;6.57;100.00;101190.50;5048668;29;20500;-64
2022/12/21 09:10:46;;;;;;;29.58;19.80;;;;;;;6.57;100.00;101194.00;5063956;29;20032;-64
2022/12/21 09:13:17;;;;;;;18.85;16.95;;;;;;;6.23;100.00;101130.16;5064574;29;20130;-65
2022/12/21 09:15:47;;;;;;;21.98;19.83;;;;;;;6.67;100.00;101207.72;5064549;29;20072;-65
2022/12/21 09:18:18;;;;;;;22.75;18.63;;;;;;;6.69;100.00;101200.28;5065051;29;20052;-65
2022/12/21 09:20:48;;;;;;;20.85;18.58;;;;;;;6.68;100.00;101195.94;5064067;29;20049;-65
2022/12/21 09:23:19;;;;;;;26.77;20.42;;;;;;;6.67;100.00;101193.47;5064574;29;20032;-65
2022/12/21 09:25:49;;;;;;;24.50;20.65;;;;;;;6.87;100.00;101209.41;5048012;29;20028;-65
2022/12/21 09:28:20;;;;;;;29.13;21.08;;;;;;;6.78;100.00;101185.53;5065004;29;20021;-65
2022/12/21 09:30:50;;;;;;;25.80;19.65;;;;;;;6.87;100.00;101212.09;5047326;29;20061;-65
2022/12/21 09:33:23;;;;;;;26.08;21.30;;;;;;;6.87;100.00;101204.84;5064066;29;20025;-66
2022/12/21 09:35:53;;;;;;;21.02;18.83;;;;;;;6.85;100.00;101206.13;5064694;29;20029;-66
2022/12/21 09:38:24;;;;;;;23.23;19.50;;;;;;;6.89;100.00;101210.00;5065029;29;20027;-66
2022/12/21 09:41:19;;;;;;;22.48;19.98;;;;;;;6.91;100.00;101218.66;5064337;29;20573;-66
2022/12/21 09:43:58;;;;;;;22.08;19.75;;;;;;;6.99;100.00;101204.91;5047847;29;20032;-66
2022/12/21 09:46:29;;;;;;;27.40;21.42;;;;;;;7.05;100.00;101199.47;5065164;29;20084;-63
2022/12/21 09:49:05;;;;;;;28.83;19.85;;;;;;;7.10;100.00;101193.44;5065318;29;20100;-65
2022/12/21 09:51:36;;;;;;;26.98;21.85;;;;;;;7.17;100.00;101199.56;5063700;29;20035;-65
2022/12/21 09:54:19;;;;;;;25.40;22.75;;;;;;;7.18;100.00;101190.44;5048735;29;20115;-67
2022/12/21 09:56:52;;;;;;;24.42;21.65;;;;;;;7.22;100.00;101199.69;5069602;29;20060;-65
2022/12/21 09:59:23;;;;;;;30.38;21.33;;;;;;;7.29;100.00;101197.72;5070062;29;20031;-65
2022/12/21 10:02:08;;;;;;;25.05;22.42;;;;;;;7.33;100.00;101206.16;5068758;29;20442;-64
2022/12/21 10:05:20;;;;;;;24.92;22.35;;;;;;;7.38;100.00;101204.44;5070388;29;20382;-65
2022/12/21 10:08:09;;;;;;;25.35;19.35;;;;;;;7.46;100.00;101203.31;5062744;29;20536;-65
2022/12/21 10:11:01;;;;;;;25.75;20.60;;;;;;;7.48;100.00;101192.34;5069220;29;20037;-65
2022/12/21 10:13:42;;;;;;;32.63;23.52;;;;;;;7.50;100.00;101195.63;5070206;29;20121;-65
2022/12/21 10:16:43;;;;;;;25.50;22.48;;;;;;;7.51;100.00;101189.22;5070165;29;20482;-67
2022/12/21 10:19:30;;;;;;;23.20;20.67;;;;;;;7.52;100.00;101174.69;5070828;29;20055;-66
2022/12/21 10:22:11;;;;;;;30.05;23.33;;;;;;;7.66;100.00;101174.28;5070380;29;20064;-67
2022/12/21 10:24:47;;;;;;;27.65;22.13;;;;;;;7.66;100.00;101168.91;5069983;29;20251;-67
2022/12/21 10:27:20;;;;;;;36.10;22.83;;;;;;;7.72;100.00;101168.00;5070988;29;20036;-66
2022/12/21 10:29:55;;;;;;;26.23;19.80;;;;;;;7.74;100.00;101176.66;5048896;29;20119;-67
2022/12/21 10:32:32;;;;;;;31.00;22.15;;;;;;;7.66;100.00;101149.28;5057580;29;20108;-66
2022/12/21 10:35:41;;;;;;;25.67;20.77;;;;;;;7.93;100.00;101169.34;5067827;29;20035;-66
2022/12/21 10:38:15;;;;;;;17.02;15.45;;;;;;;7.93;100.00;101169.34;5064636;29;20040;-65
2022/12/21 10:40:53;;;;;;;19.70;14.95;;;;;;;8.01;100.00;101165.50;5046260;29;20032;-67
2022/12/21 10:43:24;;;;;;;23.15;17.90;;;;;;;8.11;100.00;101166.53;5050899;29;20029;-66
2022/12/21 10:45:54;;;;;;;22.80;18.65;;;;;;;8.23;100.00;101169.25;5047437;29;20051;-65
2022/12/21 10:48:25;;;;;;;27.00;18.00;;;;;;;8.43;100.00;101175.16;5047914;29;20033;-66
2022/12/21 10:51:09;;;;;;;27.50;16.88;;;;;;;8.56;100.00;101176.78;5047500;29;20550;-66
2022/12/21 10:53:40;;;;;;;26.65;15.85;;;;;;;8.54;100.00;101175.38;5047315;29;20500;-68
2022/12/21 10:56:14;;;;;;;17.38;15.63;;;;;;;8.50;100.00;101169.66;5047746;29;20033;-66
2022/12/21 10:58:51;;;;;;;26.55;14.27;;;;;;;8.42;100.00;101167.31;5047857;29;20443;-66
2022/12/21 11:01:29;;;;;;;20.30;18.10;;;;;;;8.33;100.00;101160.66;5047568;29;20327;-67
2022/12/21 11:04:13;;;;;;;20.20;14.20;;;;;;;8.24;100.00;101156.63;5046806;29;20108;-67
2022/12/21 11:06:54;;;;;;;24.80;16.70;;;;;;;8.36;100.00;101160.19;5055723;29;20160;-67
2022/12/21 11:09:36;;;;;;;13.63;11.90;;;;;;;8.43;100.00;101152.78;5063625;29;20039;-67
2022/12/21 11:12:21;;;;;;;21.00;13.23;;;;;;;8.26;100.00;101135.69;5049069;29;20028;-68
2022/12/21 11:14:53;;;;;;;14.50;13.35;;;;;;;8.43;100.00;101147.41;5064752;29;20063;-67
2022/12/21 11:17:29;;;;;;;17.17;12.63;;;;;;;8.43;100.00;101147.41;5066945;29;20024;-66
2022/12/21 11:20:13;;;;;;;14.00;12.60;;;;;;;8.51;100.00;101152.44;5066875;29;20397;-65
2022/12/21 11:22:46;;;;;;;19.48;13.70;;;;;;;8.39;100.00;101128.22;5066145;29;20020;-66
2022/12/21 11:25:23;;;;;;;15.98;13.88;;;;;;;8.58;100.00;101139.69;5067049;29;20024;-66
2022/12/21 11:28:03;;;;;;;14.43;13.23;;;;;;;8.58;100.00;101145.06;5067344;29;20056;-65
2022/12/21 11:30:35;;;;;;;17.38;14.15;;;;;;;8.44;100.00;101141.78;5066575;29;20021;-66
2022/12/21 11:33:15;;;;;;;19.08;13.70;;;;;;;8.40;100.00;101132.56;5065566;29;20483;-66
2022/12/21 11:36:06;;;;;;;12.73;11.63;;;;;;;8.45;100.00;101134.53;5066552;29;20097;-67
2022/12/21 11:38:38;;;;;;;12.30;11.10;;;;;;;8.44;100.00;101139.09;5067059;29;20028;-66
2022/12/21 11:41:19;;;;;;;23.50;12.55;;;;;;;8.39;100.00;101130.91;5065855;29;20103;-65
2022/12/21 11:43:50;;;;;;;10.20;9.40;;;;;;;8.32;100.00;101134.78;5060849;29;20436;-65
2022/12/21 11:46:56;;;;;;;11.05;10.15;;;;;;;8.32;100.00;101130.22;5046652;29;20033;-65
2022/12/21 11:49:54;;;;;;;12.73;10.65;;;;;;;8.37;100.00;101124.16;5025173;29;20053;-66
2022/12/21 11:52:38;;;;;;;10.75;9.35;;;;;;;8.31;100.00;101114.28;5046859;29;20110;-65
2022/12/21 11:55:11;;;;;;;14.27;9.77;;;;;;;8.33;100.00;101117.59;5046860;29;20040;-66